Pinnacle, North Carolina
Current Conditions -  °F | °C
As of 3:35 PM on Friday 28 Nov 2014 (Local Time) from KMWK Reporting Station
Clear Clear  
Wind Chill: 38°   Ceiling: Unl
Heat Index: 41°   Visibility: 10mi
Dew Point: 19°   Wind: 5mph
Humidity: 40%   Direction: 290°WNW
Pressure: 30.29"   Gusts: NA
Location:  36.33°N, 80.43°W
Report Text: KMWK 282035Z AUTO 29004KT 10SM CLR 05/M07 A3029 RMK AO2 T00501075
Loading
Personal Weather Stations






























Interactive Weather Map New forecast layout! Learn more

10-Day Weather Forecast

Advertisements
Track Severe Weather on mobile